sensor_id;sensor_type;location;lat;lon;timestamp;P1;durP1;ratioP1;P2;durP2;ratioP2
77453;SDS011;66538;53.150;18.160;2023-02-15T00:02:20;88.50;;;35.90;;
77453;SDS011;66538;53.150;18.160;2023-02-15T00:04:47;79.30;;;29.00;;
77453;SDS011;66538;53.150;18.160;2023-02-15T00:07:14;69.30;;;31.20;;
77453;SDS011;66538;53.150;18.160;2023-02-15T00:09:42;71.40;;;29.20;;
77453;SDS011;66538;53.150;18.160;2023-02-15T00:12:09;80.00;;;33.90;;
77453;SDS011;66538;53.150;18.160;2023-02-15T00:14:36;71.70;;;30.80;;
77453;SDS011;66538;53.150;18.160;2023-02-15T00:17:03;79.70;;;32.30;;
77453;SDS011;66538;53.150;18.160;2023-02-15T00:19:30;85.60;;;34.00;;
77453;SDS011;66538;53.150;18.160;2023-02-15T00:21:57;78.50;;;33.40;;
77453;SDS011;66538;53.150;18.160;2023-02-15T00:24:23;82.40;;;34.30;;
77453;SDS011;66538;53.150;18.160;2023-02-15T00:26:50;85.30;;;36.40;;
77453;SDS011;66538;53.150;18.160;2023-02-15T00:29:17;101.30;;;40.00;;
77453;SDS011;66538;53.150;18.160;2023-02-15T00:31:45;77.10;;;28.30;;
77453;SDS011;66538;53.150;18.160;2023-02-15T00:34:16;89.40;;;35.10;;
77453;SDS011;66538;53.150;18.160;2023-02-15T00:36:45;67.20;;;25.70;;
77453;SDS011;66538;53.150;18.160;2023-02-15T00:39:14;74.20;;;33.20;;
77453;SDS011;66538;53.150;18.160;2023-02-15T00:41:44;91.00;;;35.90;;
77453;SDS011;66538;53.150;18.160;2023-02-15T00:44:12;85.50;;;36.20;;
77453;SDS011;66538;53.150;18.160;2023-02-15T00:46:41;85.10;;;32.50;;
77453;SDS011;66538;53.150;18.160;2023-02-15T00:49:09;75.20;;;31.80;;
77453;SDS011;66538;53.150;18.160;2023-02-15T00:51:36;46.40;;;22.00;;
77453;SDS011;66538;53.150;18.160;2023-02-15T00:54:03;76.80;;;31.80;;
77453;SDS011;66538;53.150;18.160;2023-02-15T00:56:30;73.40;;;32.10;;
77453;SDS011;66538;53.150;18.160;2023-02-15T00:58:57;85.90;;;34.00;;
77453;SDS011;66538;53.150;18.160;2023-02-15T01:01:24;51.90;;;21.20;;
77453;SDS011;66538;53.150;18.160;2023-02-15T01:03:52;35.60;;;17.80;;
77453;SDS011;66538;53.150;18.160;2023-02-15T01:06:19;58.20;;;24.50;;
77453;SDS011;66538;53.150;18.160;2023-02-15T01:08:47;52.20;;;22.20;;
77453;SDS011;66538;53.150;18.160;2023-02-15T01:11:19;49.40;;;20.70;;
77453;SDS011;66538;53.150;18.160;2023-02-15T01:13:55;35.60;;;13.70;;
77453;SDS011;66538;53.150;18.160;2023-02-15T01:16:24;51.90;;;18.80;;
77453;SDS011;66538;53.150;18.160;2023-02-15T01:18:52;32.10;;;13.60;;
77453;SDS011;66538;53.150;18.160;2023-02-15T01:21:21;51.20;;;21.40;;
77453;SDS011;66538;53.150;18.160;2023-02-15T01:23:50;23.60;;;9.70;;
77453;SDS011;66538;53.150;18.160;2023-02-15T01:26:17;41.00;;;15.60;;
77453;SDS011;66538;53.150;18.160;2023-02-15T01:28:44;37.40;;;15.20;;
77453;SDS011;66538;53.150;18.160;2023-02-15T01:31:12;52.70;;;19.30;;
77453;SDS011;66538;53.150;18.160;2023-02-15T01:33:41;44.70;;;17.80;;
77453;SDS011;66538;53.150;18.160;2023-02-15T01:36:09;64.90;;;23.50;;
77453;SDS011;66538;53.150;18.160;2023-02-15T01:38:36;38.50;;;16.10;;
77453;SDS011;66538;53.150;18.160;2023-02-15T01:41:05;55.20;;;22.50;;
77453;SDS011;66538;53.150;18.160;2023-02-15T01:43:54;52.00;;;18.10;;
77453;SDS011;66538;53.150;18.160;2023-02-15T01:46:40;53.80;;;21.00;;
77453;SDS011;66538;53.150;18.160;2023-02-15T01:49:17;48.30;;;18.00;;
77453;SDS011;66538;53.150;18.160;2023-02-15T01:51:47;52.70;;;20.50;;
77453;SDS011;66538;53.150;18.160;2023-02-15T01:56:58;54.40;;;19.50;;
77453;SDS011;66538;53.150;18.160;2023-02-15T01:59:30;54.90;;;21.80;;
77453;SDS011;66538;53.150;18.160;2023-02-15T02:02:00;48.10;;;20.10;;
77453;SDS011;66538;53.150;18.160;2023-02-15T02:04:41;54.50;;;22.00;;
77453;SDS011;66538;53.150;18.160;2023-02-15T02:07:14;32.50;;;12.40;;
77453;SDS011;66538;53.150;18.160;2023-02-15T02:09:44;16.10;;;6.50;;
77453;SDS011;66538;53.150;18.160;2023-02-15T02:12:11;43.80;;;17.90;;
77453;SDS011;66538;53.150;18.160;2023-02-15T02:14:39;38.80;;;16.30;;
77453;SDS011;66538;53.150;18.160;2023-02-15T02:23:09;22.40;;;9.30;;
77453;SDS011;66538;53.150;18.160;2023-02-15T02:28:33;39.00;;;16.40;;
77453;SDS011;66538;53.150;18.160;2023-02-15T02:31:35;27.20;;;10.40;;
77453;SDS011;66538;53.150;18.160;2023-02-15T02:34:18;28.30;;;11.40;;
77453;SDS011;66538;53.150;18.160;2023-02-15T02:39:33;33.60;;;14.60;;
77453;SDS011;66538;53.150;18.160;2023-02-15T02:42:27;27.60;;;11.80;;
77453;SDS011;66538;53.150;18.160;2023-02-15T02:45:16;34.20;;;14.20;;
77453;SDS011;66538;53.150;18.160;2023-02-15T02:47:51;49.50;;;20.70;;
77453;SDS011;66538;53.150;18.160;2023-02-15T02:50:25;41.50;;;16.30;;
77453;SDS011;66538;53.150;18.160;2023-02-15T02:52:55;43.90;;;18.10;;
77453;SDS011;66538;53.150;18.160;2023-02-15T02:55:27;42.90;;;17.40;;
77453;SDS011;66538;53.150;18.160;2023-02-15T02:58:23;34.50;;;13.60;;
77453;SDS011;66538;53.150;18.160;2023-02-15T03:03:45;31.90;;;13.30;;
77453;SDS011;66538;53.150;18.160;2023-02-15T03:06:17;30.60;;;12.70;;
77453;SDS011;66538;53.150;18.160;2023-02-15T03:08:48;31.30;;;15.50;;
77453;SDS011;66538;53.150;18.160;2023-02-15T03:11:21;130.50;;;47.30;;
77453;SDS011;66538;53.150;18.160;2023-02-15T03:13:48;65.60;;;25.70;;
77453;SDS011;66538;53.150;18.160;2023-02-15T03:16:16;81.20;;;33.70;;
77453;SDS011;66538;53.150;18.160;2023-02-15T03:18:56;36.40;;;16.20;;
77453;SDS011;66538;53.150;18.160;2023-02-15T03:26:31;24.40;;;9.90;;
77453;SDS011;66538;53.150;18.160;2023-02-15T03:29:00;38.30;;;15.50;;
77453;SDS011;66538;53.150;18.160;2023-02-15T03:31:31;44.60;;;18.10;;
77453;SDS011;66538;53.150;18.160;2023-02-15T03:34:00;44.50;;;17.10;;
77453;SDS011;66538;53.150;18.160;2023-02-15T03:42:06;36.20;;;15.50;;
77453;SDS011;66538;53.150;18.160;2023-02-15T03:44:46;39.40;;;16.80;;
77453;SDS011;66538;53.150;18.160;2023-02-15T03:47:19;48.20;;;18.80;;
77453;SDS011;66538;53.150;18.160;2023-02-15T03:49:52;45.10;;;18.60;;
77453;SDS011;66538;53.150;18.160;2023-02-15T03:52:20;47.10;;;19.50;;
77453;SDS011;66538;53.150;18.160;2023-02-15T03:54:49;31.50;;;15.00;;
77453;SDS011;66538;53.150;18.160;2023-02-15T03:57:26;33.90;;;15.60;;
77453;SDS011;66538;53.150;18.160;2023-02-15T04:05:55;46.40;;;18.90;;
77453;SDS011;66538;53.150;18.160;2023-02-15T04:08:22;41.40;;;17.10;;
77453;SDS011;66538;53.150;18.160;2023-02-15T04:11:09;48.60;;;17.50;;
77453;SDS011;66538;53.150;18.160;2023-02-15T04:13:35;49.60;;;19.10;;
77453;SDS011;66538;53.150;18.160;2023-02-15T04:16:02;48.60;;;18.30;;
77453;SDS011;66538;53.150;18.160;2023-02-15T04:18:30;38.70;;;14.70;;
77453;SDS011;66538;53.150;18.160;2023-02-15T04:21:21;46.40;;;18.70;;
77453;SDS011;66538;53.150;18.160;2023-02-15T04:24:08;48.40;;;18.30;;
77453;SDS011;66538;53.150;18.160;2023-02-15T04:26:54;50.10;;;16.90;;
77453;SDS011;66538;53.150;18.160;2023-02-15T04:29:22;43.10;;;14.90;;
77453;SDS011;66538;53.150;18.160;2023-02-15T04:31:50;43.40;;;16.70;;
77453;SDS011;66538;53.150;18.160;2023-02-15T04:34:18;47.60;;;18.10;;
77453;SDS011;66538;53.150;18.160;2023-02-15T04:36:44;51.10;;;18.40;;
77453;SDS011;66538;53.150;18.160;2023-02-15T04:39:15;47.70;;;18.40;;
77453;SDS011;66538;53.150;18.160;2023-02-15T04:41:43;32.80;;;13.00;;
77453;SDS011;66538;53.150;18.160;2023-02-15T04:44:10;46.50;;;17.80;;
77453;SDS011;66538;53.150;18.160;2023-02-15T04:46:37;41.00;;;15.40;;
77453;SDS011;66538;53.150;18.160;2023-02-15T04:49:04;34.30;;;13.50;;
77453;SDS011;66538;53.150;18.160;2023-02-15T04:51:31;34.20;;;12.50;;
77453;SDS011;66538;53.150;18.160;2023-02-15T04:53:57;45.90;;;14.80;;
77453;SDS011;66538;53.150;18.160;2023-02-15T04:56:24;61.90;;;22.10;;
77453;SDS011;66538;53.150;18.160;2023-02-15T04:58:50;56.40;;;22.70;;
77453;SDS011;66538;53.150;18.160;2023-02-15T05:01:17;57.80;;;21.30;;
77453;SDS011;66538;53.150;18.160;2023-02-15T05:03:44;54.90;;;21.40;;
77453;SDS011;66538;53.150;18.160;2023-02-15T05:06:10;61.70;;;22.00;;
77453;SDS011;66538;53.150;18.160;2023-02-15T05:08:37;36.20;;;12.70;;
77453;SDS011;66538;53.150;18.160;2023-02-15T05:11:03;49.10;;;18.90;;
77453;SDS011;66538;53.150;18.160;2023-02-15T05:13:30;46.30;;;17.90;;
77453;SDS011;66538;53.150;18.160;2023-02-15T05:15:57;55.50;;;20.90;;
77453;SDS011;66538;53.150;18.160;2023-02-15T05:18:23;41.10;;;15.10;;
77453;SDS011;66538;53.150;18.160;2023-02-15T05:20:50;39.70;;;14.60;;
77453;SDS011;66538;53.150;18.160;2023-02-15T05:23:17;42.20;;;16.40;;
77453;SDS011;66538;53.150;18.160;2023-02-15T05:25:47;66.60;;;23.30;;
77453;SDS011;66538;53.150;18.160;2023-02-15T05:28:36;54.80;;;18.60;;
77453;SDS011;66538;53.150;18.160;2023-02-15T05:33:37;83.20;;;28.60;;
77453;SDS011;66538;53.150;18.160;2023-02-15T05:36:04;64.70;;;23.10;;
77453;SDS011;66538;53.150;18.160;2023-02-15T05:38:31;45.90;;;17.20;;
77453;SDS011;66538;53.150;18.160;2023-02-15T05:40:59;61.90;;;24.00;;
77453;SDS011;66538;53.150;18.160;2023-02-15T05:43:26;52.00;;;21.30;;
77453;SDS011;66538;53.150;18.160;2023-02-15T05:45:53;43.90;;;17.50;;
77453;SDS011;66538;53.150;18.160;2023-02-15T05:48:21;71.70;;;27.00;;
77453;SDS011;66538;53.150;18.160;2023-02-15T05:51:03;41.60;;;15.80;;
77453;SDS011;66538;53.150;18.160;2023-02-15T05:53:35;57.00;;;22.30;;
77453;SDS011;66538;53.150;18.160;2023-02-15T05:56:04;48.80;;;19.30;;
77453;SDS011;66538;53.150;18.160;2023-02-15T05:58:36;48.90;;;18.80;;
77453;SDS011;66538;53.150;18.160;2023-02-15T06:01:15;53.40;;;19.80;;
77453;SDS011;66538;53.150;18.160;2023-02-15T06:03:44;52.40;;;16.30;;
77453;SDS011;66538;53.150;18.160;2023-02-15T06:06:11;100.90;;;33.30;;
77453;SDS011;66538;53.150;18.160;2023-02-15T06:08:38;87.50;;;30.80;;
77453;SDS011;66538;53.150;18.160;2023-02-15T06:11:05;100.80;;;35.00;;
77453;SDS011;66538;53.150;18.160;2023-02-15T06:13:32;82.80;;;30.70;;
77453;SDS011;66538;53.150;18.160;2023-02-15T06:15:59;61.20;;;23.40;;
77453;SDS011;66538;53.150;18.160;2023-02-15T06:18:26;69.60;;;27.40;;
77453;SDS011;66538;53.150;18.160;2023-02-15T06:20:53;60.70;;;24.30;;
77453;SDS011;66538;53.150;18.160;2023-02-15T06:23:19;54.80;;;21.00;;
77453;SDS011;66538;53.150;18.160;2023-02-15T06:25:46;36.80;;;16.00;;
77453;SDS011;66538;53.150;18.160;2023-02-15T06:28:13;47.50;;;18.30;;
77453;SDS011;66538;53.150;18.160;2023-02-15T06:30:40;83.20;;;29.80;;
77453;SDS011;66538;53.150;18.160;2023-02-15T06:33:06;90.90;;;33.30;;
77453;SDS011;66538;53.150;18.160;2023-02-15T06:35:33;105.20;;;37.30;;
77453;SDS011;66538;53.150;18.160;2023-02-15T06:38:00;93.70;;;34.40;;
77453;SDS011;66538;53.150;18.160;2023-02-15T06:40:26;46.00;;;16.60;;
77453;SDS011;66538;53.150;18.160;2023-02-15T06:42:53;75.50;;;26.80;;
77453;SDS011;66538;53.150;18.160;2023-02-15T06:45:19;54.00;;;19.60;;
77453;SDS011;66538;53.150;18.160;2023-02-15T06:47:46;54.40;;;20.80;;
77453;SDS011;66538;53.150;18.160;2023-02-15T06:50:13;44.30;;;18.60;;
77453;SDS011;66538;53.150;18.160;2023-02-15T06:52:39;53.40;;;18.70;;
77453;SDS011;66538;53.150;18.160;2023-02-15T06:55:06;48.10;;;18.50;;
77453;SDS011;66538;53.150;18.160;2023-02-15T06:57:33;53.00;;;21.80;;
77453;SDS011;66538;53.150;18.160;2023-02-15T07:00:00;46.90;;;17.50;;
77453;SDS011;66538;53.150;18.160;2023-02-15T07:02:26;45.40;;;16.60;;
77453;SDS011;66538;53.150;18.160;2023-02-15T07:04:53;46.70;;;18.90;;
77453;SDS011;66538;53.150;18.160;2023-02-15T07:07:19;50.10;;;19.50;;
77453;SDS011;66538;53.150;18.160;2023-02-15T07:09:46;43.20;;;16.30;;
77453;SDS011;66538;53.150;18.160;2023-02-15T07:12:13;41.70;;;16.30;;
77453;SDS011;66538;53.150;18.160;2023-02-15T07:14:58;57.70;;;22.00;;
77453;SDS011;66538;53.150;18.160;2023-02-15T07:17:25;57.70;;;20.60;;
77453;SDS011;66538;53.150;18.160;2023-02-15T07:19:54;43.00;;;16.60;;
77453;SDS011;66538;53.150;18.160;2023-02-15T07:22:21;59.20;;;21.30;;
77453;SDS011;66538;53.150;18.160;2023-02-15T07:24:48;53.60;;;21.70;;
77453;SDS011;66538;53.150;18.160;2023-02-15T07:27:15;46.30;;;19.50;;
77453;SDS011;66538;53.150;18.160;2023-02-15T07:29:42;54.30;;;22.00;;
77453;SDS011;66538;53.150;18.160;2023-02-15T07:32:08;43.10;;;18.20;;
77453;SDS011;66538;53.150;18.160;2023-02-15T07:34:35;47.90;;;19.10;;
77453;SDS011;66538;53.150;18.160;2023-02-15T07:37:01;50.30;;;19.20;;
77453;SDS011;66538;53.150;18.160;2023-02-15T07:39:28;41.70;;;16.40;;
77453;SDS011;66538;53.150;18.160;2023-02-15T07:41:55;56.80;;;21.30;;
77453;SDS011;66538;53.150;18.160;2023-02-15T07:44:23;55.10;;;21.20;;
77453;SDS011;66538;53.150;18.160;2023-02-15T07:46:49;49.50;;;20.50;;
77453;SDS011;66538;53.150;18.160;2023-02-15T07:49:16;45.30;;;19.80;;
77453;SDS011;66538;53.150;18.160;2023-02-15T07:51:43;42.40;;;15.90;;
77453;SDS011;66538;53.150;18.160;2023-02-15T07:54:09;46.10;;;19.50;;
77453;SDS011;66538;53.150;18.160;2023-02-15T07:56:36;41.00;;;17.90;;
77453;SDS011;66538;53.150;18.160;2023-02-15T07:59:03;49.20;;;19.80;;
77453;SDS011;66538;53.150;18.160;2023-02-15T08:01:33;38.70;;;16.60;;
77453;SDS011;66538;53.150;18.160;2023-02-15T08:04:02;35.50;;;14.30;;
77453;SDS011;66538;53.150;18.160;2023-02-15T08:06:31;29.30;;;11.70;;
77453;SDS011;66538;53.150;18.160;2023-02-15T08:09:00;44.60;;;15.60;;
77453;SDS011;66538;53.150;18.160;2023-02-15T08:11:31;36.80;;;15.70;;
77453;SDS011;66538;53.150;18.160;2023-02-15T08:14:06;28.00;;;10.50;;
77453;SDS011;66538;53.150;18.160;2023-02-15T08:16:35;26.80;;;11.10;;
77453;SDS011;66538;53.150;18.160;2023-02-15T08:19:11;35.30;;;14.10;;
77453;SDS011;66538;53.150;18.160;2023-02-15T08:21:52;37.10;;;16.90;;
77453;SDS011;66538;53.150;18.160;2023-02-15T08:24:27;48.50;;;19.30;;
77453;SDS011;66538;53.150;18.160;2023-02-15T08:26:56;31.40;;;12.90;;
77453;SDS011;66538;53.150;18.160;2023-02-15T08:29:27;26.10;;;11.60;;
77453;SDS011;66538;53.150;18.160;2023-02-15T08:31:56;46.10;;;18.30;;
77453;SDS011;66538;53.150;18.160;2023-02-15T08:34:29;40.80;;;19.10;;
77453;SDS011;66538;53.150;18.160;2023-02-15T08:36:57;37.00;;;16.00;;
77453;SDS011;66538;53.150;18.160;2023-02-15T08:39:24;35.60;;;14.90;;
77453;SDS011;66538;53.150;18.160;2023-02-15T08:41:50;42.70;;;19.70;;
77453;SDS011;66538;53.150;18.160;2023-02-15T08:44:18;30.40;;;13.90;;
77453;SDS011;66538;53.150;18.160;2023-02-15T08:46:46;37.80;;;17.50;;
77453;SDS011;66538;53.150;18.160;2023-02-15T08:49:20;40.20;;;18.80;;
77453;SDS011;66538;53.150;18.160;2023-02-15T08:51:48;33.80;;;16.50;;
77453;SDS011;66538;53.150;18.160;2023-02-15T08:54:16;34.00;;;13.60;;
77453;SDS011;66538;53.150;18.160;2023-02-15T08:56:45;52.70;;;21.70;;
77453;SDS011;66538;53.150;18.160;2023-02-15T08:59:13;40.20;;;18.10;;
77453;SDS011;66538;53.150;18.160;2023-02-15T09:01:43;45.60;;;21.20;;
77453;SDS011;66538;53.150;18.160;2023-02-15T09:04:10;37.60;;;15.90;;
77453;SDS011;66538;53.150;18.160;2023-02-15T09:06:37;37.10;;;16.60;;
77453;SDS011;66538;53.150;18.160;2023-02-15T09:09:05;30.70;;;13.20;;
77453;SDS011;66538;53.150;18.160;2023-02-15T09:11:34;44.40;;;20.00;;
77453;SDS011;66538;53.150;18.160;2023-02-15T09:14:04;26.40;;;12.30;;
77453;SDS011;66538;53.150;18.160;2023-02-15T09:16:36;35.60;;;18.30;;
77453;SDS011;66538;53.150;18.160;2023-02-15T09:19:04;36.00;;;16.60;;
77453;SDS011;66538;53.150;18.160;2023-02-15T09:21:32;33.90;;;16.60;;
77453;SDS011;66538;53.150;18.160;2023-02-15T09:24:02;30.20;;;15.30;;
77453;SDS011;66538;53.150;18.160;2023-02-15T09:26:31;27.70;;;12.60;;
77453;SDS011;66538;53.150;18.160;2023-02-15T09:29:00;34.90;;;16.30;;
77453;SDS011;66538;53.150;18.160;2023-02-15T09:31:33;33.50;;;17.00;;
77453;SDS011;66538;53.150;18.160;2023-02-15T09:34:05;32.60;;;16.10;;
77453;SDS011;66538;53.150;18.160;2023-02-15T09:36:35;34.00;;;16.90;;
77453;SDS011;66538;53.150;18.160;2023-02-15T09:56:22;34.60;;;15.20;;
77453;SDS011;66538;53.150;18.160;2023-02-15T09:59:00;23.10;;;11.70;;
77453;SDS011;66538;53.150;18.160;2023-02-15T10:04:24;27.40;;;14.50;;
77453;SDS011;66538;53.150;18.160;2023-02-15T10:07:08;27.80;;;12.80;;
77453;SDS011;66538;53.150;18.160;2023-02-15T10:17:54;31.70;;;14.60;;
77453;SDS011;66538;53.150;18.160;2023-02-15T10:26:23;29.90;;;13.50;;
77453;SDS011;66538;53.150;18.160;2023-02-15T10:31:47;40.80;;;19.20;;
77453;SDS011;66538;53.150;18.160;2023-02-15T10:34:22;20.50;;;10.20;;
77453;SDS011;66538;53.150;18.160;2023-02-15T10:40:10;45.30;;;20.70;;
77453;SDS011;66538;53.150;18.160;2023-02-15T10:45:58;42.90;;;19.50;;
77453;SDS011;66538;53.150;18.160;2023-02-15T10:49:23;26.10;;;13.20;;
77453;SDS011;66538;53.150;18.160;2023-02-15T10:57:59;23.00;;;9.80;;
77453;SDS011;66538;53.150;18.160;2023-02-15T11:06:23;34.80;;;17.60;;
77453;SDS011;66538;53.150;18.160;2023-02-15T11:08:57;34.80;;;16.60;;
77453;SDS011;66538;53.150;18.160;2023-02-15T11:11:35;19.00;;;8.90;;
77453;SDS011;66538;53.150;18.160;2023-02-15T11:14:10;36.20;;;16.10;;
77453;SDS011;66538;53.150;18.160;2023-02-15T11:16:47;28.00;;;15.00;;
77453;SDS011;66538;53.150;18.160;2023-02-15T11:21:57;40.80;;;19.50;;
77453;SDS011;66538;53.150;18.160;2023-02-15T11:24:28;53.60;;;22.00;;
77453;SDS011;66538;53.150;18.160;2023-02-15T11:26:57;57.70;;;24.30;;
77453;SDS011;66538;53.150;18.160;2023-02-15T11:32:41;52.20;;;22.10;;
77453;SDS011;66538;53.150;18.160;2023-02-15T11:37:55;69.00;;;27.10;;
77453;SDS011;66538;53.150;18.160;2023-02-15T11:40:34;66.80;;;27.70;;
77453;SDS011;66538;53.150;18.160;2023-02-15T11:43:26;40.60;;;20.30;;
77453;SDS011;66538;53.150;18.160;2023-02-15T11:45:57;49.80;;;19.40;;
77453;SDS011;66538;53.150;18.160;2023-02-15T11:48:24;41.20;;;20.50;;
77453;SDS011;66538;53.150;18.160;2023-02-15T11:50:50;37.40;;;17.70;;
77453;SDS011;66538;53.150;18.160;2023-02-15T11:53:18;38.50;;;17.20;;
77453;SDS011;66538;53.150;18.160;2023-02-15T11:55:48;55.80;;;24.20;;
77453;SDS011;66538;53.150;18.160;2023-02-15T12:00:56;43.60;;;17.40;;
77453;SDS011;66538;53.150;18.160;2023-02-15T12:03:41;36.20;;;16.60;;
77453;SDS011;66538;53.150;18.160;2023-02-15T12:06:15;38.10;;;18.50;;
77453;SDS011;66538;53.150;18.160;2023-02-15T12:11:50;45.00;;;21.40;;
77453;SDS011;66538;53.150;18.160;2023-02-15T12:14:17;35.70;;;17.00;;
77453;SDS011;66538;53.150;18.160;2023-02-15T12:16:48;37.80;;;18.60;;
77453;SDS011;66538;53.150;18.160;2023-02-15T12:19:24;41.50;;;21.50;;
77453;SDS011;66538;53.150;18.160;2023-02-15T12:21:56;33.50;;;15.60;;
77453;SDS011;66538;53.150;18.160;2023-02-15T12:24:29;33.10;;;15.60;;
77453;SDS011;66538;53.150;18.160;2023-02-15T12:27:05;29.40;;;15.70;;
77453;SDS011;66538;53.150;18.160;2023-02-15T12:29:41;42.90;;;22.60;;
77453;SDS011;66538;53.150;18.160;2023-02-15T12:32:19;31.00;;;15.90;;
77453;SDS011;66538;53.150;18.160;2023-02-15T12:34:59;41.20;;;20.20;;
77453;SDS011;66538;53.150;18.160;2023-02-15T12:37:33;33.90;;;16.10;;
77453;SDS011;66538;53.150;18.160;2023-02-15T12:40:02;48.50;;;22.50;;
77453;SDS011;66538;53.150;18.160;2023-02-15T12:42:45;33.40;;;15.30;;
77453;SDS011;66538;53.150;18.160;2023-02-15T12:45:46;51.30;;;23.90;;
77453;SDS011;66538;53.150;18.160;2023-02-15T12:50:39;20.10;;;9.20;;
77453;SDS011;66538;53.150;18.160;2023-02-15T12:53:14;31.60;;;14.50;;
77453;SDS011;66538;53.150;18.160;2023-02-15T12:58:35;37.10;;;19.20;;
77453;SDS011;66538;53.150;18.160;2023-02-15T13:01:08;22.10;;;10.10;;
77453;SDS011;66538;53.150;18.160;2023-02-15T13:03:36;36.60;;;17.60;;
77453;SDS011;66538;53.150;18.160;2023-02-15T13:06:20;31.10;;;15.00;;
77453;SDS011;66538;53.150;18.160;2023-02-15T13:08:49;34.60;;;15.10;;
77453;SDS011;66538;53.150;18.160;2023-02-15T13:11:21;35.60;;;19.20;;
77453;SDS011;66538;53.150;18.160;2023-02-15T13:13:57;34.00;;;17.80;;
77453;SDS011;66538;53.150;18.160;2023-02-15T13:16:32;41.90;;;19.20;;
77453;SDS011;66538;53.150;18.160;2023-02-15T13:19:16;40.30;;;19.70;;
77453;SDS011;66538;53.150;18.160;2023-02-15T13:21:49;33.90;;;17.00;;
77453;SDS011;66538;53.150;18.160;2023-02-15T13:24:25;38.30;;;17.50;;
77453;SDS011;66538;53.150;18.160;2023-02-15T13:26:54;33.60;;;14.90;;
77453;SDS011;66538;53.150;18.160;2023-02-15T13:29:24;36.50;;;16.30;;
77453;SDS011;66538;53.150;18.160;2023-02-15T13:31:53;40.50;;;20.50;;
77453;SDS011;66538;53.150;18.160;2023-02-15T13:37:05;44.90;;;21.00;;
77453;SDS011;66538;53.150;18.160;2023-02-15T13:47:51;38.70;;;18.30;;
77453;SDS011;66538;53.150;18.160;2023-02-15T13:56:13;43.40;;;20.80;;
77453;SDS011;66538;53.150;18.160;2023-02-15T13:59:07;44.70;;;21.60;;
77453;SDS011;66538;53.150;18.160;2023-02-15T14:07:53;40.60;;;20.60;;
77453;SDS011;66538;53.150;18.160;2023-02-15T14:10:44;42.40;;;19.30;;
77453;SDS011;66538;53.150;18.160;2023-02-15T14:18:25;47.70;;;22.70;;
77453;SDS011;66538;53.150;18.160;2023-02-15T14:21:01;23.00;;;10.90;;
77453;SDS011;66538;53.150;18.160;2023-02-15T14:23:38;32.20;;;16.00;;
77453;SDS011;66538;53.150;18.160;2023-02-15T14:29:21;41.50;;;20.20;;
77453;SDS011;66538;53.150;18.160;2023-02-15T14:31:55;51.10;;;22.50;;
77453;SDS011;66538;53.150;18.160;2023-02-15T14:34:30;38.80;;;17.10;;
77453;SDS011;66538;53.150;18.160;2023-02-15T14:37:09;22.50;;;10.70;;
77453;SDS011;66538;53.150;18.160;2023-02-15T14:42:34;51.70;;;22.80;;
77453;SDS011;66538;53.150;18.160;2023-02-15T14:50:43;57.90;;;22.90;;
77453;SDS011;66538;53.150;18.160;2023-02-15T14:55:41;54.70;;;22.70;;
77453;SDS011;66538;53.150;18.160;2023-02-15T14:58:11;51.90;;;22.30;;
77453;SDS011;66538;53.150;18.160;2023-02-15T15:00:40;52.90;;;23.00;;
77453;SDS011;66538;53.150;18.160;2023-02-15T15:03:19;57.60;;;24.70;;
77453;SDS011;66538;53.150;18.160;2023-02-15T15:05:51;55.10;;;24.80;;
77453;SDS011;66538;53.150;18.160;2023-02-15T15:08:40;54.10;;;22.70;;
77453;SDS011;66538;53.150;18.160;2023-02-15T15:13:57;47.60;;;21.70;;
77453;SDS011;66538;53.150;18.160;2023-02-15T15:16:29;41.20;;;18.10;;
77453;SDS011;66538;53.150;18.160;2023-02-15T15:19:03;24.90;;;11.60;;
77453;SDS011;66538;53.150;18.160;2023-02-15T15:24:58;48.30;;;20.90;;
77453;SDS011;66538;53.150;18.160;2023-02-15T15:49:23;55.10;;;23.40;;
77453;SDS011;66538;53.150;18.160;2023-02-15T15:51:54;58.80;;;24.60;;
77453;SDS011;66538;53.150;18.160;2023-02-15T15:54:21;52.30;;;22.60;;
77453;SDS011;66538;53.150;18.160;2023-02-15T15:56:51;32.00;;;12.40;;
77453;SDS011;66538;53.150;18.160;2023-02-15T15:59:22;34.30;;;15.40;;
77453;SDS011;66538;53.150;18.160;2023-02-15T16:01:52;50.10;;;20.10;;
77453;SDS011;66538;53.150;18.160;2023-02-15T16:04:23;43.90;;;17.80;;
77453;SDS011;66538;53.150;18.160;2023-02-15T16:07:42;51.60;;;21.80;;
77453;SDS011;66538;53.150;18.160;2023-02-15T16:09:59;80.10;;;30.20;;
77453;SDS011;66538;53.150;18.160;2023-02-15T16:12:27;54.10;;;21.80;;
77453;SDS011;66538;53.150;18.160;2023-02-15T16:17:48;47.00;;;18.40;;
77453;SDS011;66538;53.150;18.160;2023-02-15T16:20:21;62.40;;;24.50;;
77453;SDS011;66538;53.150;18.160;2023-02-15T16:22:54;61.20;;;24.80;;
77453;SDS011;66538;53.150;18.160;2023-02-15T16:25:33;40.60;;;17.20;;
77453;SDS011;66538;53.150;18.160;2023-02-15T16:28:06;47.40;;;19.80;;
77453;SDS011;66538;53.150;18.160;2023-02-15T16:30:35;75.10;;;28.10;;
77453;SDS011;66538;53.150;18.160;2023-02-15T16:35:37;74.30;;;28.30;;
77453;SDS011;66538;53.150;18.160;2023-02-15T16:38:09;75.60;;;26.40;;
77453;SDS011;66538;53.150;18.160;2023-02-15T16:40:41;92.60;;;33.60;;
77453;SDS011;66538;53.150;18.160;2023-02-15T16:43:17;85.30;;;32.20;;
77453;SDS011;66538;53.150;18.160;2023-02-15T16:45:49;48.70;;;19.40;;
77453;SDS011;66538;53.150;18.160;2023-02-15T16:48:19;52.40;;;19.40;;
77453;SDS011;66538;53.150;18.160;2023-02-15T16:50:49;67.40;;;24.80;;
77453;SDS011;66538;53.150;18.160;2023-02-15T16:53:25;69.80;;;27.20;;
77453;SDS011;66538;53.150;18.160;2023-02-15T16:55:54;57.20;;;22.70;;
77453;SDS011;66538;53.150;18.160;2023-02-15T16:58:59;62.50;;;24.70;;
77453;SDS011;66538;53.150;18.160;2023-02-15T17:01:20;70.80;;;24.80;;
77453;SDS011;66538;53.150;18.160;2023-02-15T17:03:50;62.90;;;24.40;;
77453;SDS011;66538;53.150;18.160;2023-02-15T17:06:36;77.00;;;25.70;;
77453;SDS011;66538;53.150;18.160;2023-02-15T17:09:03;83.70;;;29.10;;
77453;SDS011;66538;53.150;18.160;2023-02-15T17:11:33;88.00;;;32.60;;
77453;SDS011;66538;53.150;18.160;2023-02-15T17:16:42;125.60;;;44.80;;
77453;SDS011;66538;53.150;18.160;2023-02-15T17:19:19;93.80;;;34.20;;
77453;SDS011;66538;53.150;18.160;2023-02-15T17:21:56;73.30;;;29.20;;
77453;SDS011;66538;53.150;18.160;2023-02-15T17:24:28;98.50;;;36.90;;
77453;SDS011;66538;53.150;18.160;2023-02-15T17:27:02;66.40;;;25.60;;
77453;SDS011;66538;53.150;18.160;2023-02-15T17:29:43;76.10;;;27.10;;
77453;SDS011;66538;53.150;18.160;2023-02-15T17:32:20;84.40;;;28.60;;
77453;SDS011;66538;53.150;18.160;2023-02-15T17:35:35;92.40;;;31.30;;
77453;SDS011;66538;53.150;18.160;2023-02-15T17:37:45;94.90;;;31.30;;
77453;SDS011;66538;53.150;18.160;2023-02-15T17:42:41;98.80;;;35.30;;
77453;SDS011;66538;53.150;18.160;2023-02-15T17:45:07;93.80;;;32.20;;
77453;SDS011;66538;53.150;18.160;2023-02-15T17:47:34;94.60;;;33.00;;